首页
METAR-TAF:

METAR-TAF

机场 :

萊斯布里奇, 艾伯塔, 加拿大

纬度: 49-38N, 经度: 112-48W, 海拔: 929米

当前天气观测

该预报发布于1小时和5分钟前的13:00 UTC
风速6节,风向西转西南
温度 -6°C
湿度 86%
气压 1025 hPa
能見度: 96.5公里
少量云层高于6500英尺

METAR: CYQL 151300Z 24006KT 60SM FEW065 M06/M08 A3027 RMK SC2 SLP286

时间: 08:05 (14:05 UTC)

预报

该预报发布于2小时和27分钟前的11:38 UTC
预报有效从15日的 12点(UTC)到 15日的 24点(UTC)
风速6节,风向西转西南
能見度: 10公里
天空无云
从 15日的 1800点(UTC)
风速10节,风向北转东北
能見度: 10公里
少量云层高于8000英尺

TAF: CYQL 151138Z 1512/1524 24006KT P6SM SKC FM151800 03010KT P6SM FEW080 RMK FCST BASED ON AUTO OBS. NXT FCST BY 151800Z

超过4000个机场的气象观测和天气预报(METAR&TAF报告)。

可查询的气象台以黄色和红色小点在地图上表示。

将鼠标移到小点上方,可查看气象台名称。

然后点击查看天气观测和预报。

如需切换地图:点击带黑十字的绿色按钮放大地图;点击带横线的绿色按钮缩小地图;或者点击绿色箭头查看邻近地区的地图。


METAR-TAF: